Time;durP1;ratioP1;P1;durP2;ratioP2;P2;SDS_P1;SDS_P2;PMS_P1;PMS_P2;Temp;Humidity;BMP_temperature;BMP_pressure;BME280_temperature;BME280_humidity;BME280_pressure;Samples;Min_cycle;Max_cycle;Signal;HPM_P1;HPM_P2
2022/01/08 00:01:11;;;;;;;1.00;0.90;;;2.70;99.90;;;;;;4916299;29;20441;-74
2022/01/08 00:03:38;;;;;;;0.70;0.67;;;2.70;99.90;;;;;;4916100;29;20175;-74
2022/01/08 00:06:04;;;;;;;2.60;1.10;;;2.70;99.90;;;;;;4917434;29;21019;-74
2022/01/08 00:08:30;;;;;;;0.90;0.90;;;2.60;99.90;;;;;;4917927;29;20513;-74
2022/01/08 00:10:56;;;;;;;1.00;0.90;;;2.60;99.90;;;;;;4917805;29;20267;-74
2022/01/08 00:13:21;;;;;;;0.90;0.80;;;2.60;99.90;;;;;;4917663;29;20578;-74
2022/01/08 00:15:47;;;;;;;0.87;0.70;;;2.60;99.90;;;;;;4917946;29;20185;-74
2022/01/08 00:18:13;;;;;;;1.10;0.80;;;2.60;99.90;;;;;;4917773;29;20193;-74
2022/01/08 00:20:38;;;;;;;0.70;0.67;;;2.70;99.90;;;;;;4917428;29;20265;-72
2022/01/08 00:23:04;;;;;;;1.13;0.70;;;2.70;99.90;;;;;;4917640;29;20637;-74
2022/01/08 00:25:30;;;;;;;1.23;0.70;;;2.70;99.90;;;;;;4917531;29;20685;-75
2022/01/08 00:27:56;;;;;;;0.83;0.67;;;2.70;99.90;;;;;;4917602;29;20188;-74
2022/01/08 00:30:21;;;;;;;0.63;0.60;;;2.80;99.90;;;;;;4917515;29;20184;-74
2022/01/08 00:32:47;;;;;;;4.67;0.90;;;2.80;99.90;;;;;;4917150;29;20812;-71
2022/01/08 00:35:13;;;;;;;0.70;0.70;;;2.90;99.90;;;;;;4916588;29;20177;-74
2022/01/08 00:37:39;;;;;;;1.67;1.00;;;2.90;99.90;;;;;;4915698;29;20188;-74
2022/01/08 00:40:07;;;;;;;0.70;0.70;;;2.90;99.90;;;;;;4915463;29;20442;-74
2022/01/08 00:42:33;;;;;;;4.40;0.90;;;2.80;99.90;;;;;;4915455;29;20416;-74
2022/01/08 00:44:59;;;;;;;0.90;0.77;;;2.90;99.90;;;;;;4915474;29;20416;-74
2022/01/08 00:47:24;;;;;;;2.13;0.73;;;2.90;99.90;;;;;;4915907;29;20758;-74
2022/01/08 00:49:50;;;;;;;1.53;0.97;;;2.90;99.90;;;;;;4916279;29;20178;-74
2022/01/08 00:52:16;;;;;;;2.83;1.17;;;2.90;99.90;;;;;;4915548;29;20236;-74
2022/01/08 00:54:41;;;;;;;2.57;1.10;;;2.90;99.90;;;;;;4916611;29;20200;-74
2022/01/08 00:57:07;;;;;;;3.20;1.13;;;3.00;99.90;;;;;;4917185;29;20261;-75
2022/01/08 00:59:32;;;;;;;3.47;1.47;;;3.00;99.90;;;;;;4916867;29;20222;-74
2022/01/08 05:31:15;;;;;;;1.37;1.27;;;2.50;99.90;;;;;;5658156;23;20512;-74
2022/01/08 05:33:42;;;;;;;0.77;0.70;;;2.50;99.90;;;;;;4953326;28;20444;-74
2022/01/08 05:36:07;;;;;;;5.20;1.73;;;2.50;99.90;;;;;;4952972;28;20430;-74
2022/01/08 05:38:33;;;;;;;2.50;1.40;;;2.50;99.90;;;;;;4936583;29;20550;-75
2022/01/08 05:41:00;;;;;;;1.53;1.27;;;2.50;99.90;;;;;;4934925;29;20353;-75
2022/01/08 05:43:26;;;;;;;1.27;1.13;;;2.50;99.90;;;;;;4934246;29;20175;-76
2022/01/08 05:45:51;;;;;;;0.80;0.80;;;2.50;99.90;;;;;;4934628;29;20776;-75
2022/01/08 05:48:17;;;;;;;1.23;0.90;;;2.50;99.90;;;;;;4935080;29;20970;-75
2022/01/08 05:50:42;;;;;;;0.70;0.70;;;2.50;99.90;;;;;;4934337;29;20578;-75
2022/01/08 05:53:08;;;;;;;0.60;0.60;;;2.50;99.90;;;;;;4934509;29;20190;-74
2022/01/08 05:55:34;;;;;;;0.60;0.50;;;2.50;99.90;;;;;;4934740;29;20178;-76
2022/01/08 05:57:59;;;;;;;1.07;0.60;;;2.50;99.90;;;;;;4934274;29;20181;-75
2022/01/08 06:00:25;;;;;;;0.60;0.50;;;2.40;99.90;;;;;;4933539;29;20218;-75
2022/01/08 06:02:50;;;;;;;0.60;0.60;;;2.50;99.90;;;;;;4931836;29;20180;-78
2022/01/08 06:05:16;;;;;;;0.73;0.70;;;2.50;99.90;;;;;;4932663;29;20187;-77
2022/01/08 06:07:41;;;;;;;0.60;0.60;;;2.50;99.90;;;;;;4934131;29;20188;-78
2022/01/08 06:10:07;;;;;;;1.73;0.40;;;2.40;99.90;;;;;;4934329;29;20185;-76
2022/01/08 06:12:33;;;;;;;0.70;0.70;;;2.40;99.90;;;;;;4934050;29;20576;-77
2022/01/08 06:14:58;;;;;;;1.27;0.50;;;2.30;99.90;;;;;;4933152;29;20413;-75
2022/01/08 06:17:24;;;;;;;3.03;0.50;;;2.30;99.90;;;;;;4934880;29;20194;-77
2022/01/08 06:19:50;;;;;;;0.30;0.30;;;2.30;99.90;;;;;;4934690;29;20209;-77
2022/01/08 06:22:15;;;;;;;0.50;0.50;;;2.20;99.90;;;;;;4934299;29;20199;-78
2022/01/08 06:24:41;;;;;;;0.47;0.47;;;2.20;99.90;;;;;;4932978;29;20184;-78
2022/01/08 06:27:07;;;;;;;0.80;0.60;;;2.20;99.90;;;;;;4933846;29;20186;-79
2022/01/08 06:29:32;;;;;;;0.50;0.50;;;2.10;99.90;;;;;;4933989;29;20192;-77
2022/01/08 06:31:58;;;;;;;0.87;0.50;;;2.10;99.90;;;;;;4933482;29;20684;-79
2022/01/08 06:34:23;;;;;;;0.70;0.40;;;2.10;99.90;;;;;;4932731;29;20651;-79
2022/01/08 06:36:49;;;;;;;0.60;0.50;;;2.10;99.90;;;;;;4933418;29;20710;-77
2022/01/08 06:39:15;;;;;;;0.70;0.50;;;2.10;99.90;;;;;;4933784;29;20220;-78
2022/01/08 06:41:40;;;;;;;1.07;0.50;;;2.10;99.90;;;;;;4933065;29;20273;-79
2022/01/08 06:44:06;;;;;;;0.60;0.60;;;2.10;99.90;;;;;;4930447;29;20525;-79
2022/01/08 06:46:32;;;;;;;0.87;0.60;;;2.10;99.90;;;;;;4932558;29;20186;-79
2022/01/08 06:48:57;;;;;;;0.50;0.50;;;2.00;99.90;;;;;;4941518;29;20193;-78
2022/01/08 06:51:23;;;;;;;0.70;0.70;;;2.00;99.90;;;;;;4952392;28;20269;-80
2022/01/08 06:53:48;;;;;;;1.53;0.60;;;2.00;99.90;;;;;;4952370;28;20192;-78
2022/01/08 06:56:14;;;;;;;1.83;0.60;;;2.00;99.90;;;;;;4952030;28;20187;-78
2022/01/08 06:58:41;;;;;;;0.97;0.80;;;2.00;99.90;;;;;;4952720;28;20573;-80
2022/01/08 07:01:07;;;;;;;0.60;0.60;;;2.10;99.90;;;;;;4952292;28;20304;-76
2022/01/08 07:03:33;;;;;;;1.20;0.93;;;2.00;99.90;;;;;;4951916;28;20920;-78
2022/01/08 07:05:58;;;;;;;0.67;0.67;;;2.00;99.90;;;;;;4952203;28;20591;-78
2022/01/08 07:08:24;;;;;;;1.63;0.70;;;2.10;99.90;;;;;;4951781;28;20212;-77
2022/01/08 07:10:49;;;;;;;0.90;0.60;;;2.00;99.90;;;;;;4951827;28;20206;-73
2022/01/08 07:13:15;;;;;;;0.80;0.80;;;2.10;99.90;;;;;;4951668;28;20221;-71
2022/01/08 07:15:40;;;;;;;3.13;1.33;;;2.10;99.90;;;;;;4952349;28;20656;-74
2022/01/08 07:18:06;;;;;;;2.13;1.13;;;2.20;99.90;;;;;;4952196;28;20190;-74
2022/01/08 07:20:31;;;;;;;2.83;1.03;;;2.20;99.90;;;;;;4951739;28;20212;-74
2022/01/08 07:22:59;;;;;;;1.13;1.07;;;2.10;99.90;;;;;;4950919;28;20650;-75
2022/01/08 07:25:24;;;;;;;2.30;1.03;;;2.10;99.90;;;;;;4949071;28;20178;-73
2022/01/08 07:27:50;;;;;;;0.93;0.93;;;2.00;99.90;;;;;;4952038;28;20403;-74
2022/01/08 07:30:15;;;;;;;1.00;1.00;;;2.00;99.90;;;;;;4951823;28;20269;-75
2022/01/08 07:32:47;;;;;;;1.50;1.40;;;2.00;99.90;;;;;;4951783;28;20583;-73
2022/01/08 07:35:14;;;;;;;1.00;1.00;;;2.00;99.90;;;;;;4951651;28;20181;-71
2022/01/08 07:37:41;;;;;;;1.43;1.17;;;2.00;99.90;;;;;;4951624;28;20491;-75
2022/01/08 07:40:08;;;;;;;1.70;1.60;;;2.10;99.90;;;;;;4951609;28;20463;-75
2022/01/08 07:42:34;;;;;;;1.53;1.43;;;2.00;99.90;;;;;;4951943;28;20437;-74
2022/01/08 07:44:59;;;;;;;6.00;1.70;;;2.00;99.90;;;;;;4950450;28;20411;-75
2022/01/08 07:47:25;;;;;;;2.77;2.60;;;2.00;99.90;;;;;;4949776;28;20193;-74
2022/01/08 07:49:50;;;;;;;3.80;1.80;;;2.00;99.90;;;;;;4949911;28;20592;-75
2022/01/08 07:52:16;;;;;;;1.90;1.73;;;2.10;99.90;;;;;;4949954;28;20235;-74
2022/01/08 07:54:42;;;;;;;2.40;1.70;;;2.10;99.90;;;;;;4949263;28;20176;-73
2022/01/08 07:57:07;;;;;;;2.47;1.83;;;2.10;99.90;;;;;;4949648;28;20424;-71
2022/01/08 07:59:33;;;;;;;3.37;1.87;;;2.10;99.90;;;;;;4950453;28;20226;-75
2022/01/08 08:01:58;;;;;;;2.80;2.20;;;2.20;99.90;;;;;;4950979;28;20380;-74
2022/01/08 08:04:24;;;;;;;2.90;1.80;;;2.20;99.90;;;;;;4951932;28;20563;-73
2022/01/08 08:06:50;;;;;;;4.03;2.10;;;2.20;99.90;;;;;;4954810;28;20185;-76
2022/01/08 08:09:15;;;;;;;1.80;1.70;;;2.20;99.90;;;;;;4955111;28;20262;-71
2022/01/08 08:11:42;;;;;;;1.90;1.80;;;2.30;99.90;;;;;;4954921;28;20234;-74
2022/01/08 08:14:08;;;;;;;3.00;1.50;;;2.30;99.90;;;;;;4954106;28;20176;-71
2022/01/08 08:16:34;;;;;;;1.50;1.23;;;2.20;99.90;;;;;;4954420;28;20445;-73
2022/01/08 08:19:00;;;;;;;7.40;1.80;;;2.30;99.90;;;;;;4954833;28;20493;-71
2022/01/08 08:21:25;;;;;;;1.20;1.10;;;2.30;99.90;;;;;;4954775;28;20738;-74
2022/01/08 08:23:51;;;;;;;2.33;1.57;;;2.30;99.90;;;;;;4952817;28;20182;-75
2022/01/08 08:26:16;;;;;;;1.67;1.47;;;2.30;99.90;;;;;;4954748;28;20173;-74
2022/01/08 08:28:42;;;;;;;2.73;1.60;;;2.30;99.90;;;;;;4954839;28;20591;-74
2022/01/08 08:31:08;;;;;;;1.90;1.50;;;2.30;99.90;;;;;;4953104;28;20208;-73
2022/01/08 08:33:34;;;;;;;1.20;1.10;;;2.40;99.90;;;;;;4949705;28;20173;-73
2022/01/08 08:35:59;;;;;;;2.77;1.43;;;2.40;99.90;;;;;;4948395;29;20405;-76
2022/01/08 08:38:25;;;;;;;5.50;1.83;;;2.50;99.90;;;;;;4953563;28;20225;-73
2022/01/08 08:40:51;;;;;;;3.83;2.43;;;2.50;99.90;;;;;;4954003;28;20674;-74
2022/01/08 08:43:19;;;;;;;4.60;2.50;;;2.60;99.90;;;;;;4952632;28;20504;-71
2022/01/08 08:45:45;;;;;;;4.30;2.13;;;2.60;99.90;;;;;;4954659;28;20645;-74
2022/01/08 08:48:11;;;;;;;4.03;2.57;;;2.70;99.90;;;;;;4940924;29;20506;-74
2022/01/08 08:50:37;;;;;;;5.50;3.50;;;2.70;99.90;;;;;;4942575;29;20519;-75
2022/01/08 08:53:03;;;;;;;4.87;2.37;;;2.70;99.90;;;;;;4940919;28;20196;-72
2022/01/08 08:55:28;;;;;;;2.57;1.63;;;2.80;99.90;;;;;;4939501;28;20448;-72
2022/01/08 08:57:54;;;;;;;3.40;1.53;;;2.90;99.90;;;;;;4941982;29;20444;-74
2022/01/08 09:00:20;;;;;;;4.00;2.50;;;3.00;99.90;;;;;;4939785;28;20493;-73
2022/01/08 09:02:46;;;;;;;6.73;2.03;;;3.10;99.90;;;;;;4939792;29;20460;-74
2022/01/08 09:05:13;;;;;;;1.20;1.10;;;2.90;99.90;;;;;;4941528;28;20228;-74
2022/01/08 09:07:39;;;;;;;4.67;1.70;;;2.80;99.90;;;;;;4941325;28;20220;-74
2022/01/08 09:10:06;;;;;;;3.00;1.10;;;2.80;99.90;;;;;;4940954;28;20525;-74
2022/01/08 09:12:32;;;;;;;3.67;1.90;;;2.90;99.90;;;;;;4940718;29;21063;-73
2022/01/08 09:14:58;;;;;;;1.90;1.70;;;2.90;99.90;;;;;;4938180;28;20482;-73
2022/01/08 09:17:25;;;;;;;2.03;1.53;;;3.00;99.90;;;;;;4940535;29;20420;-74
2022/01/08 09:19:51;;;;;;;3.23;2.00;;;3.00;99.90;;;;;;4939283;28;20221;-73
2022/01/08 09:22:17;;;;;;;6.20;1.70;;;3.10;99.90;;;;;;4940357;29;20536;-74
2022/01/08 09:24:43;;;;;;;3.80;1.13;;;3.20;99.90;;;;;;4938136;28;20441;-75
2022/01/08 09:27:09;;;;;;;3.77;1.37;;;3.30;99.90;;;;;;4940608;29;20491;-75
2022/01/08 09:29:34;;;;;;;8.27;2.00;;;3.40;99.90;;;;;;4940124;29;20446;-76
2022/01/08 09:32:00;;;;;;;3.63;1.53;;;3.40;99.90;;;;;;4940914;28;20234;-75
2022/01/08 09:34:26;;;;;;;1.87;1.40;;;3.50;99.90;;;;;;4940522;29;20284;-74
2022/01/08 09:36:51;;;;;;;4.17;1.30;;;3.50;99.90;;;;;;4941226;28;20224;-75
2022/01/08 09:39:17;;;;;;;3.70;1.87;;;3.60;99.90;;;;;;4941284;28;20332;-75
2022/01/08 09:41:43;;;;;;;1.40;1.23;;;3.60;99.90;;;;;;4940563;28;20220;-75
2022/01/08 09:44:10;;;;;;;4.03;1.80;;;3.60;99.90;;;;;;4939451;28;20205;-74
2022/01/08 09:46:36;;;;;;;2.00;1.40;;;3.60;99.90;;;;;;4940969;28;20590;-77
2022/01/08 09:49:01;;;;;;;1.50;1.40;;;3.70;99.90;;;;;;4940476;29;20456;-73
2022/01/08 09:51:27;;;;;;;5.43;1.80;;;3.70;99.90;;;;;;4940351;28;20467;-71
2022/01/08 09:53:54;;;;;;;3.70;1.90;;;3.70;99.90;;;;;;4939805;29;20201;-72
2022/01/08 09:56:22;;;;;;;4.13;1.97;;;3.70;99.90;;;;;;4940300;28;20240;-74
2022/01/08 09:58:47;;;;;;;3.70;3.33;;;3.60;99.90;;;;;;4939767;29;20474;-74
2022/01/08 10:01:26;;;;;;;5.47;2.00;;;3.40;99.90;;;;;;4939747;28;20447;-70
2022/01/08 10:03:52;;;;;;;1.50;1.40;;;3.40;99.90;;;;;;4940352;29;20204;-74
2022/01/08 10:06:23;;;;;;;1.73;1.63;;;3.30;99.90;;;;;;4940247;28;20539;-73
2022/01/08 10:08:50;;;;;;;2.77;1.30;;;3.20;99.90;;;;;;4940671;29;20452;-74
2022/01/08 10:11:16;;;;;;;2.03;1.87;;;3.30;99.90;;;;;;4939848;28;20483;-73
2022/01/08 10:13:42;;;;;;;2.40;1.17;;;3.40;99.90;;;;;;4939022;29;20437;-71
2022/01/08 10:19:02;;;;;;;9.87;2.53;;;3.60;99.90;;;;;;4940270;29;20560;-73
2022/01/08 10:21:32;;;;;;;2.10;1.80;;;3.70;99.90;;;;;;4940118;28;20453;-75
2022/01/08 10:24:04;;;;;;;1.40;1.30;;;3.80;99.90;;;;;;4939577;29;20473;-74
2022/01/08 10:26:33;;;;;;;3.40;1.37;;;3.80;99.90;;;;;;4940238;28;20460;-74
2022/01/08 10:29:01;;;;;;;7.90;1.30;;;3.70;99.90;;;;;;4939583;29;20453;-75
2022/01/08 10:31:31;;;;;;;3.00;1.40;;;3.60;99.90;;;;;;4938826;29;20473;-74
2022/01/08 10:34:02;;;;;;;4.83;2.23;;;3.60;99.90;;;;;;4940123;29;20437;-74
2022/01/08 10:37:00;;;;;;;4.83;1.53;;;3.60;99.90;;;;;;4941029;28;20442;-75
2022/01/08 10:39:34;;;;;;;2.90;1.50;;;3.60;99.90;;;;;;4934777;29;20484;-75
2022/01/08 10:42:14;;;;;;;7.07;1.77;;;3.50;99.90;;;;;;4940163;28;20874;-74
2022/01/08 10:44:42;;;;;;;9.43;1.83;;;3.40;99.90;;;;;;4938610;29;20467;-76
2022/01/08 10:47:13;;;;;;;3.30;1.60;;;3.50;99.90;;;;;;4939207;28;20459;-74
2022/01/08 10:49:43;;;;;;;1.30;1.20;;;3.50;99.90;;;;;;4941032;29;20528;-74
2022/01/08 10:52:10;;;;;;;1.50;1.40;;;3.50;99.90;;;;;;4939986;28;20457;-74
2022/01/08 10:54:42;;;;;;;3.93;1.37;;;3.50;99.90;;;;;;4939624;29;20786;-74
2022/01/08 10:57:09;;;;;;;2.10;1.20;;;3.50;99.90;;;;;;4940022;28;20452;-72
2022/01/08 10:59:36;;;;;;;2.73;1.30;;;3.60;99.90;;;;;;4939657;29;20472;-74
2022/01/08 11:02:13;;;;;;;1.90;1.20;;;3.60;99.90;;;;;;4939257;28;20848;-72
2022/01/08 11:04:48;;;;;;;4.27;1.47;;;3.50;99.90;;;;;;4938937;29;20784;-72
2022/01/08 11:07:32;;;;;;;1.63;1.17;;;3.50;99.90;;;;;;4939629;28;20487;-74
2022/01/08 11:10:02;;;;;;;1.43;1.30;;;3.60;99.90;;;;;;4939709;29;21089;-72
2022/01/08 11:12:35;;;;;;;1.83;1.00;;;3.70;99.90;;;;;;4940741;28;20461;-73
2022/01/08 11:17:47;;;;;;;4.30;1.27;;;3.80;99.90;;;;;;4939580;28;20449;-73
2022/01/08 11:20:19;;;;;;;5.43;0.90;;;4.30;99.90;;;;;;4939557;29;20501;-72
2022/01/08 11:22:47;;;;;;;3.03;1.10;;;4.70;99.90;;;;;;4939145;28;20450;-72
2022/01/08 11:25:30;;;;;;;2.77;1.40;;;4.90;99.90;;;;;;4938872;29;20442;-72
2022/01/08 11:28:10;;;;;;;3.70;1.20;;;5.00;99.90;;;;;;4938951;29;20415;-74
2022/01/08 11:31:00;;;;;;;8.23;1.27;;;5.10;99.90;;;;;;4939959;28;20528;-72
2022/01/08 11:33:29;;;;;;;6.57;1.20;;;4.90;99.90;;;;;;4938470;29;20507;-74
2022/01/08 11:35:56;;;;;;;3.13;1.03;;;4.60;99.90;;;;;;4938368;28;20436;-75
2022/01/08 11:38:26;;;;;;;7.50;1.33;;;4.20;99.90;;;;;;4939831;28;20786;-72
2022/01/08 11:40:53;;;;;;;2.70;0.90;;;4.10;99.90;;;;;;4943417;28;20484;-75
2022/01/08 11:43:22;;;;;;;3.00;1.10;;;4.00;99.90;;;;;;4942368;29;20441;-74
2022/01/08 11:46:00;;;;;;;3.73;1.93;;;4.00;99.90;;;;;;4943271;28;20441;-76
2022/01/08 11:48:30;;;;;;;1.27;1.17;;;4.00;99.90;;;;;;4943813;28;20442;-74
2022/01/08 11:50:59;;;;;;;1.97;1.17;;;4.20;99.90;;;;;;4942630;28;20465;-76
2022/01/08 11:53:27;;;;;;;1.80;1.03;;;4.20;99.90;;;;;;4941749;29;20478;-74
2022/01/08 11:55:56;;;;;;;1.90;0.80;;;4.40;99.90;;;;;;4943022;28;20980;-75
2022/01/08 11:58:23;;;;;;;6.23;1.27;;;4.40;99.90;;;;;;4940944;29;20517;-72
2022/01/08 12:01:11;;;;;;;2.13;0.80;;;4.40;99.90;;;;;;4943289;28;20441;-74
2022/01/08 12:03:51;;;;;;;4.63;1.33;;;4.40;99.90;;;;;;4941689;29;20600;-77
2022/01/08 12:06:29;;;;;;;2.30;0.93;;;4.60;99.90;;;;;;4942638;28;20458;-74
2022/01/08 12:11:44;;;;;;;4.23;1.20;;;5.00;99.90;;;;;;4942248;28;20788;-73
2022/01/08 12:14:15;;;;;;;2.50;1.37;;;5.00;99.90;;;;;;4940266;29;20442;-73
2022/01/08 12:16:42;;;;;;;80.45;21.77;;;5.10;99.90;;;;;;4942986;28;20422;-74
2022/01/08 12:19:25;;;;;;;28.33;8.30;;;5.30;99.90;;;;;;4943349;29;20223;-74
2022/01/08 12:21:51;;;;;;;76.60;17.47;;;5.50;99.90;;;;;;4942060;28;21005;-75
2022/01/08 12:24:25;;;;;;;19.37;7.53;;;5.70;99.90;;;;;;4941811;29;20448;-75
2022/01/08 12:26:52;;;;;;;2.13;1.93;;;5.90;99.90;;;;;;4941436;28;20222;-74
2022/01/08 12:29:35;;;;;;;13.30;5.43;;;5.90;99.90;;;;;;4941684;29;20447;-75
2022/01/08 12:32:35;;;;;;;3.10;1.90;;;5.90;99.90;;;;;;4941118;28;20479;-73
2022/01/08 12:35:19;;;;;;;4.53;2.20;;;5.80;99.90;;;;;;4943238;29;20454;-75
2022/01/08 12:37:48;;;;;;;4.73;2.07;;;5.30;99.90;;;;;;4942627;28;20902;-72
2022/01/08 12:40:32;;;;;;;29.50;8.47;;;5.10;99.90;;;;;;4941299;29;20485;-72
2022/01/08 12:42:58;;;;;;;10.10;1.70;;;5.00;99.90;;;;;;4942339;28;20458;-71
2022/01/08 12:45:34;;;;;;;4.13;2.73;;;4.90;99.90;;;;;;4941258;29;20436;-72
2022/01/08 12:48:00;;;;;;;2.00;1.30;;;4.70;99.90;;;;;;4941384;28;20445;-72
2022/01/08 12:50:32;;;;;;;7.03;2.63;;;4.60;99.90;;;;;;4940268;28;20437;-71
2022/01/08 12:53:06;;;;;;;8.37;3.77;;;4.50;99.90;;;;;;4939695;28;20464;-73
2022/01/08 12:55:53;;;;;;;25.83;10.87;;;4.30;99.90;;;;;;4940451;29;20583;-73
2022/01/08 12:58:23;;;;;;;8.00;4.23;;;4.40;99.90;;;;;;4943479;28;20431;-73
2022/01/08 13:01:08;;;;;;;3.10;1.70;;;4.70;99.90;;;;;;4941033;29;21025;-73
2022/01/08 13:03:46;;;;;;;9.57;2.10;;;4.70;99.90;;;;;;4940949;29;20469;-74
2022/01/08 13:06:12;;;;;;;5.93;1.43;;;4.60;99.90;;;;;;4943070;28;20433;-73
2022/01/08 13:08:38;;;;;;;2.50;1.63;;;4.70;99.90;;;;;;4943623;28;20434;-73
2022/01/08 13:11:06;;;;;;;12.57;5.37;;;4.70;99.90;;;;;;4941223;29;20273;-72
2022/01/08 13:13:50;;;;;;;6.93;2.47;;;4.60;99.90;;;;;;4942810;28;20463;-74
2022/01/08 13:16:22;;;;;;;2.37;1.50;;;4.60;99.90;;;;;;4942636;28;20421;-74
2022/01/08 13:18:56;;;;;;;4.80;1.10;;;4.50;99.90;;;;;;4942685;29;20458;-73
2022/01/08 13:21:34;;;;;;;8.33;3.27;;;4.50;99.90;;;;;;4941132;28;20538;-73
2022/01/08 13:24:03;;;;;;;8.30;2.30;;;4.40;99.90;;;;;;4942535;29;20975;-74
2022/01/08 13:26:33;;;;;;;2.97;0.90;;;4.40;99.90;;;;;;4940972;28;20501;-74
2022/01/08 13:29:00;;;;;;;0.73;0.60;;;4.20;99.90;;;;;;4941909;29;20445;-71
2022/01/08 13:31:46;;;;;;;2.30;0.80;;;4.10;99.90;;;;;;4940511;28;20442;-74
2022/01/08 13:34:11;;;;;;;1.63;1.00;;;4.10;99.90;;;;;;4940113;29;20446;-74
2022/01/08 13:36:58;;;;;;;0.93;0.80;;;4.10;99.90;;;;;;4941823;28;20452;-74
2022/01/08 13:39:32;;;;;;;1.33;0.90;;;4.10;99.90;;;;;;4943019;29;20230;-72
2022/01/08 13:42:28;;;;;;;3.13;1.17;;;4.10;99.90;;;;;;4940225;28;20838;-71
2022/01/08 13:44:54;;;;;;;2.53;1.20;;;4.10;99.90;;;;;;4940378;29;20516;-74
2022/01/08 13:47:29;;;;;;;1.23;1.10;;;4.00;99.90;;;;;;4938873;28;20804;-74
2022/01/08 13:50:07;;;;;;;4.87;1.07;;;4.10;99.90;;;;;;4942427;29;20506;-72
2022/01/08 13:52:39;;;;;;;1.03;0.97;;;4.10;99.90;;;;;;4938936;28;20461;-73
2022/01/08 13:55:08;;;;;;;3.87;1.00;;;4.00;99.90;;;;;;4940843;28;20445;-73
2022/01/08 13:57:34;;;;;;;0.97;0.73;;;3.90;99.90;;;;;;4938950;28;20461;-73
2022/01/08 14:00:21;;;;;;;3.00;1.00;;;3.90;99.90;;;;;;4940876;29;20469;-73
2022/01/08 14:02:50;;;;;;;0.83;0.83;;;3.80;99.90;;;;;;4938683;28;20526;-72
2022/01/08 14:05:15;;;;;;;1.80;0.90;;;3.80;99.90;;;;;;4939190;29;21000;-74
2022/01/08 14:07:41;;;;;;;0.80;0.80;;;3.80;99.90;;;;;;4939786;28;20468;-71
2022/01/08 14:10:08;;;;;;;1.43;1.27;;;3.80;99.90;;;;;;4941953;29;20651;-72
2022/01/08 14:12:33;;;;;;;1.67;1.03;;;3.80;99.90;;;;;;4939309;28;20469;-73
2022/01/08 14:15:04;;;;;;;1.20;1.10;;;3.90;99.90;;;;;;4940340;29;20462;-74
2022/01/08 14:17:31;;;;;;;7.40;3.70;;;3.90;99.90;;;;;;4939623;28;20224;-73
2022/01/08 14:19:58;;;;;;;5.50;3.13;;;3.90;99.90;;;;;;4940527;29;20479;-73
2022/01/08 14:22:24;;;;;;;4.13;2.40;;;3.90;99.90;;;;;;4940409;28;20967;-73
2022/01/08 14:24:51;;;;;;;2.97;1.40;;;3.90;99.90;;;;;;4939831;28;20474;-73
2022/01/08 14:27:19;;;;;;;1.77;1.40;;;3.90;99.90;;;;;;4939435;28;20460;-73
2022/01/08 14:29:48;;;;;;;2.13;1.93;;;3.90;99.90;;;;;;4940074;29;20481;-73
2022/01/08 14:32:19;;;;;;;3.13;1.10;;;4.00;99.90;;;;;;4939398;28;20460;-75
2022/01/08 14:34:46;;;;;;;5.50;1.03;;;4.00;99.90;;;;;;4939193;29;20453;-73
2022/01/08 14:37:26;;;;;;;4.77;2.30;;;4.00;99.90;;;;;;4939346;29;20556;-74
2022/01/08 14:39:52;;;;;;;2.70;2.50;;;4.00;99.90;;;;;;4945389;28;20484;-73
2022/01/08 14:42:19;;;;;;;6.63;2.93;;;3.90;99.90;;;;;;4942970;28;20991;-73
2022/01/08 14:44:57;;;;;;;3.43;2.50;;;3.90;99.90;;;;;;4948777;28;20852;-74
2022/01/08 14:47:49;;;;;;;4.10;2.43;;;3.90;99.90;;;;;;4949798;28;20461;-74
2022/01/08 14:50:18;;;;;;;1.97;1.10;;;3.80;99.90;;;;;;4950210;28;20516;-74
2022/01/08 14:52:45;;;;;;;2.73;1.20;;;3.80;99.90;;;;;;4951220;28;20460;-70
2022/01/08 14:55:14;;;;;;;2.80;2.40;;;3.70;99.90;;;;;;4951244;28;20565;-71
2022/01/08 14:57:39;;;;;;;3.63;2.20;;;3.70;99.90;;;;;;4951549;28;20506;-74
2022/01/08 15:00:07;;;;;;;4.30;2.80;;;3.70;99.90;;;;;;4951258;28;20519;-75
2022/01/08 15:02:36;;;;;;;21.20;13.00;;;3.60;99.90;;;;;;4937599;28;20928;-74
2022/01/08 15:05:07;;;;;;;5.27;2.20;;;3.60;99.90;;;;;;4931916;29;20498;-70
2022/01/08 15:07:33;;;;;;;4.50;1.30;;;3.70;99.90;;;;;;4932400;28;20456;-73
2022/01/08 15:09:59;;;;;;;5.00;4.43;;;3.70;99.90;;;;;;4942515;29;20437;-73
2022/01/08 15:12:24;;;;;;;3.23;3.03;;;3.70;99.90;;;;;;4950996;28;20966;-73
2022/01/08 15:14:50;;;;;;;1.93;1.70;;;3.60;99.90;;;;;;4953915;28;20247;-73
2022/01/08 15:17:15;;;;;;;2.73;1.07;;;3.70;99.90;;;;;;4953446;28;20212;-72
2022/01/08 15:19:41;;;;;;;1.73;1.60;;;3.70;99.90;;;;;;4955228;29;20232;-71
2022/01/08 15:22:07;;;;;;;1.30;1.20;;;3.60;99.90;;;;;;4954954;28;20629;-73
2022/01/08 15:24:33;;;;;;;8.63;1.07;;;3.60;99.90;;;;;;4954780;29;20227;-73
2022/01/08 15:27:00;;;;;;;2.30;1.17;;;3.60;99.90;;;;;;4954887;29;20273;-73
2022/01/08 15:29:27;;;;;;;2.87;1.23;;;3.60;99.90;;;;;;4955157;28;20452;-73
2022/01/08 15:31:54;;;;;;;1.27;1.17;;;3.60;99.90;;;;;;4954705;28;20472;-73
2022/01/08 15:34:20;;;;;;;1.20;1.20;;;3.60;99.90;;;;;;4954744;28;20823;-73
2022/01/08 15:36:45;;;;;;;0.97;0.90;;;3.70;99.90;;;;;;4954964;29;20454;-73
2022/01/08 15:39:12;;;;;;;2.47;0.93;;;3.70;99.90;;;;;;4954921;28;20286;-74
2022/01/08 15:41:38;;;;;;;9.40;3.40;;;3.70;99.90;;;;;;4953855;28;20210;-73
2022/01/08 15:44:05;;;;;;;6.43;3.40;;;3.60;99.90;;;;;;4954465;28;20457;-72
2022/01/08 15:46:31;;;;;;;9.27;4.37;;;3.60;99.90;;;;;;4954540;28;20201;-73
2022/01/08 15:48:56;;;;;;;21.70;9.20;;;3.60;99.90;;;;;;4954969;28;20483;-73
2022/01/08 15:51:22;;;;;;;11.63;5.93;;;3.60;99.90;;;;;;4954460;28;20206;-71
2022/01/08 15:53:48;;;;;;;5.67;2.73;;;3.60;99.90;;;;;;4954051;28;20230;-73
2022/01/08 15:56:14;;;;;;;1.27;0.90;;;3.60;99.90;;;;;;4954442;28;20210;-72
2022/01/08 15:58:39;;;;;;;1.20;1.03;;;3.60;99.90;;;;;;4954107;28;20224;-72
2022/01/08 16:01:05;;;;;;;1.00;0.90;;;3.60;99.90;;;;;;4948300;28;20482;-72
2022/01/08 16:03:31;;;;;;;2.43;1.30;;;3.60;99.90;;;;;;4934919;28;20225;-73
2022/01/08 16:05:57;;;;;;;1.60;1.00;;;3.60;99.90;;;;;;4935072;29;20207;-73
2022/01/08 16:08:24;;;;;;;1.77;1.27;;;3.60;99.90;;;;;;4935409;28;20493;-73
2022/01/08 16:10:51;;;;;;;2.10;1.53;;;3.60;99.90;;;;;;4950819;29;20220;-74
2022/01/08 16:13:17;;;;;;;1.30;1.10;;;3.60;99.90;;;;;;4954169;28;20450;-75
2022/01/08 16:15:43;;;;;;;2.40;1.40;;;3.60;99.90;;;;;;4954163;28;20859;-74
2022/01/08 16:18:09;;;;;;;1.93;1.83;;;3.60;99.90;;;;;;4954402;28;20296;-73
2022/01/08 16:20:35;;;;;;;2.63;1.93;;;3.60;99.90;;;;;;4954205;28;20967;-76
2022/01/08 16:23:02;;;;;;;2.27;1.70;;;3.50;99.90;;;;;;4953541;28;20268;-74
2022/01/08 16:25:27;;;;;;;2.60;1.47;;;3.50;99.90;;;;;;4953320;28;20500;-74
2022/01/08 16:27:53;;;;;;;16.93;5.20;;;3.50;99.90;;;;;;4953761;28;20455;-75
2022/01/08 16:30:21;;;;;;;4.40;2.77;;;3.50;99.90;;;;;;4944215;28;20309;-75
2022/01/08 16:32:46;;;;;;;3.40;3.10;;;3.60;99.90;;;;;;4947313;28;20701;-72
2022/01/08 16:35:12;;;;;;;1.77;1.60;;;3.60;99.90;;;;;;4954498;28;20525;-74
2022/01/08 16:37:37;;;;;;;1.17;1.00;;;3.50;99.90;;;;;;4953559;28;20782;-74
2022/01/08 16:40:04;;;;;;;3.10;2.50;;;3.60;99.90;;;;;;4953508;28;20252;-74
2022/01/08 16:42:30;;;;;;;4.10;1.93;;;3.60;99.90;;;;;;4953955;28;20750;-74
2022/01/08 16:44:55;;;;;;;6.43;1.43;;;3.60;99.90;;;;;;4951896;28;20565;-73
2022/01/08 16:47:21;;;;;;;2.20;2.00;;;3.60;99.90;;;;;;4954033;28;20202;-72
2022/01/08 16:49:46;;;;;;;4.13;1.63;;;3.60;99.90;;;;;;4953951;28;20232;-73
2022/01/08 16:52:13;;;;;;;3.57;2.67;;;3.60;99.90;;;;;;4954132;28;20208;-74
2022/01/08 16:54:39;;;;;;;1.30;1.13;;;3.50;99.90;;;;;;4952629;28;20564;-72
2022/01/08 16:57:05;;;;;;;5.13;2.13;;;3.50;99.90;;;;;;4953481;28;20485;-73
2022/01/08 16:59:31;;;;;;;4.47;2.00;;;3.50;99.90;;;;;;4953652;28;20484;-73
2022/01/08 17:01:56;;;;;;;2.00;1.70;;;3.60;99.90;;;;;;4953716;28;20446;-74
2022/01/08 17:04:22;;;;;;;1.83;1.40;;;3.50;99.90;;;;;;4953073;28;20252;-72
2022/01/08 17:06:48;;;;;;;8.00;1.60;;;3.50;99.90;;;;;;4953400;28;21120;-74
2022/01/08 17:09:13;;;;;;;1.80;1.17;;;3.50;99.90;;;;;;4946169;28;20226;-73
2022/01/08 17:11:39;;;;;;;1.40;1.30;;;3.40;99.90;;;;;;4953282;28;20338;-74
2022/01/08 17:14:04;;;;;;;1.13;1.07;;;3.50;99.90;;;;;;4953533;28;20221;-74
2022/01/08 17:16:30;;;;;;;3.23;1.00;;;3.40;99.90;;;;;;4953478;28;20718;-74
2022/01/08 17:18:55;;;;;;;1.60;0.97;;;3.50;99.90;;;;;;4941244;28;20214;-74
2022/01/08 17:21:21;;;;;;;2.60;1.30;;;3.50;99.90;;;;;;4944334;29;20707;-72
2022/01/08 17:23:47;;;;;;;2.30;1.27;;;3.50;99.90;;;;;;4933479;28;20218;-73
2022/01/08 17:26:12;;;;;;;1.43;1.10;;;3.60;99.90;;;;;;4932557;28;20559;-75
2022/01/08 17:28:38;;;;;;;8.90;2.70;;;3.50;99.90;;;;;;4932175;29;20189;-74
2022/01/08 17:31:04;;;;;;;1.63;1.47;;;3.50;99.90;;;;;;4931015;29;20210;-74
2022/01/08 17:33:30;;;;;;;2.70;1.87;;;3.50;99.90;;;;;;4931918;29;20182;-74
2022/01/08 17:35:58;;;;;;;1.00;0.90;;;3.50;99.90;;;;;;4933050;29;20439;-74
2022/01/08 17:38:24;;;;;;;0.93;0.83;;;3.50;99.90;;;;;;4934114;29;20179;-74